Time;durP1;ratioP1;P1;durP2;ratioP2;P2;SDS_P1;SDS_P2;PMS_P1;PMS_P2;Temp;Humidity;BMP_temperature;BMP_pressure;BME280_temperature;BME280_humidity;BME280_pressure;Samples;Min_cycle;Max_cycle;Signal;HPM_P1;HPM_P2
2022/11/08 00:03:23;;;;;;;;;;;;;;;-148.88;92.87;75464.44;5076698;28;19915;-77
2022/11/08 00:14:00;;;;;;;;;;;;;;;-148.88;94.84;75494.91;5076570;28;20332;-77
2022/11/08 00:16:26;;;;;;;;;;;;;;;-148.88;95.07;75498.97;5075049;28;20023;-77
2022/11/08 00:18:51;;;;;;;;;;;;;;;-148.88;95.41;75509.13;5076351;28;20435;-77
2022/11/08 00:21:17;;;;;;;;;;;;;;;-148.88;95.40;75509.13;5076282;28;19908;-76
2022/11/08 00:23:42;;;;;;;;;;;;;;;-148.88;95.78;75513.19;5076194;28;19909;-76
2022/11/08 00:26:07;;;;;;;;;;;;;;;-148.88;96.06;75517.25;5076345;28;20359;-77
2022/11/08 00:28:32;;;;;;;;;;;;;;;-148.88;96.16;75523.34;5076634;28;20010;-76
2022/11/08 00:30:58;;;;;;;;;;;;;;;-148.88;96.86;75533.50;5074836;28;19916;-76
2022/11/08 00:33:23;;;;;;;;;;;;;;;-148.88;96.97;75535.53;5074657;28;20313;-76
2022/11/08 00:35:48;;;;;;;;;;;;;;;-148.88;97.09;75541.63;5075994;28;19912;-76
2022/11/08 00:38:13;;;;;;;;;;;;;;;-148.88;97.45;75545.69;5074794;28;19954;-76
2022/11/08 00:40:38;;;;;;;;;;;;;;;-148.88;97.88;75545.69;5074756;28;19909;-76
2022/11/08 00:43:04;;;;;;;;;;;;;;;-148.88;97.66;75545.69;5074131;28;19967;-77
2022/11/08 00:45:29;;;;;;;;;;;;;;;-148.88;97.91;75553.81;5076170;28;19942;-77
2022/11/08 00:47:54;;;;;;;;;;;;;;;-148.88;98.33;75559.91;5074498;28;20346;-77
2022/11/08 00:50:19;;;;;;;;;;;;;;;-148.88;98.23;75561.94;5074356;28;19956;-77
2022/11/08 00:52:44;;;;;;;;;;;;;;;-148.88;98.43;75553.81;5074466;28;19908;-77
2022/11/08 00:55:10;;;;;;;;;;;;;;;-148.88;98.45;75557.88;5075934;28;19908;-77
2022/11/08 00:57:35;;;;;;;;;;;;;;;-148.88;98.50;75557.88;5074483;28;19909;-76
2022/11/08 01:00:00;;;;;;;;;;;;;;;-148.88;98.93;75568.03;5075738;28;20392;-76
2022/11/08 01:02:25;;;;;;;;;;;;;;;-148.88;98.92;75557.88;5074370;28;19908;-76
2022/11/08 01:04:50;;;;;;;;;;;;;;;-148.88;99.13;75568.03;5075664;28;19974;-76
2022/11/08 01:07:16;;;;;;;;;;;;;;;-148.88;99.01;75566.00;5075421;28;20074;-76
2022/11/08 01:09:41;;;;;;;;;;;;;;;-148.88;99.23;75576.13;5073953;28;19915;-76
2022/11/08 01:12:06;;;;;;;;;;;;;;;-148.88;99.28;75574.13;5075219;28;19909;-76
2022/11/08 01:14:31;;;;;;;;;;;;;;;-148.88;99.26;75566.00;5075492;28;20321;-76
2022/11/08 01:16:56;;;;;;;;;;;;;;;-148.88;99.05;75561.94;5073941;28;20447;-76
2022/11/08 01:19:22;;;;;;;;;;;;;;;-148.88;99.06;75570.03;5075186;28;19950;-77
2022/11/08 01:21:47;;;;;;;;;;;;;;;-148.88;98.84;75563.97;5075154;28;19908;-77
2022/11/08 01:24:12;;;;;;;;;;;;;;;-148.88;98.97;75566.00;5075070;28;19948;-76
2022/11/08 01:26:37;;;;;;;;;;;;;;;-148.88;98.84;75557.88;5075346;28;19914;-77
2022/11/08 01:29:02;;;;;;;;;;;;;;;-148.88;98.82;75553.81;5075012;28;19973;-76
2022/11/08 01:31:29;;;;;;;;;;;;;;;-148.88;98.33;75553.81;5073655;28;19939;-77
2022/11/08 01:33:54;;;;;;;;;;;;;;;-148.88;98.14;75553.81;5073604;28;19909;-77
2022/11/08 01:36:21;;;;;;;;;;;;;;;-148.88;98.44;75561.94;5075045;28;19908;-76
2022/11/08 01:38:46;;;;;;;;;;;;;;;-148.88;98.33;75557.88;5074773;28;19915;-76
2022/11/08 01:41:12;;;;;;;;;;;;;;;-148.88;98.63;75549.75;5073802;28;19908;-76
2022/11/08 01:43:42;;;;;;;;;;;;;;;-148.88;98.66;75555.84;5073370;28;19912;-76
2022/11/08 01:46:26;;;;;;;;;;;;;;;-148.88;98.49;75545.69;5074747;28;19987;-76
2022/11/08 01:48:55;;;;;;;;;;;;;;;-148.88;98.02;75543.66;5074608;28;19908;-76
2022/11/08 01:51:24;;;;;;;;;;;;;;;-148.88;98.26;75547.72;5074492;28;19916;-76
2022/11/08 01:53:49;;;;;;;;;;;;;;;-148.88;97.89;75537.56;5074440;28;19912;-76
2022/11/08 01:56:15;;;;;;;;;;;;;;;-148.88;97.78;75541.63;5072572;28;19908;-76
2022/11/08 01:58:43;;;;;;;;;;;;;;;-148.88;97.78;75537.56;5074487;28;19908;-77
2022/11/08 02:01:10;;;;;;;;;;;;;;;-148.88;97.36;75541.63;5074407;28;20298;-76
2022/11/08 02:03:36;;;;;;;;;;;;;;;-148.88;97.57;75549.75;5074253;28;19908;-77
2022/11/08 02:06:02;;;;;;;;;;;;;;;-148.88;97.47;75547.72;5074334;28;19908;-76
2022/11/08 02:08:33;;;;;;;;;;;;;;;-148.88;97.55;75557.88;5074350;28;19908;-77
2022/11/08 02:10:59;;;;;;;;;;;;;;;-148.88;98.13;75566.00;5072877;28;20003;-77
2022/11/08 02:13:26;;;;;;;;;;;;;;;-148.88;98.31;75574.13;5072735;28;19908;-77
2022/11/08 02:15:51;;;;;;;;;;;;;;;-148.88;98.09;75574.13;5074090;28;20336;-77
2022/11/08 02:18:17;;;;;;;;;;;;;;;-148.88;98.71;75574.13;5074299;28;20366;-76
2022/11/08 02:20:49;;;;;;;;;;;;;;;-148.88;98.56;75580.22;5074047;28;20363;-76
2022/11/08 02:23:23;;;;;;;;;;;;;;;-148.88;99.14;75594.44;5073959;28;19908;-76
2022/11/08 02:25:52;;;;;;;;;;;;;;;-148.88;99.17;75590.34;5072776;28;19912;-76
2022/11/08 02:28:18;;;;;;;;;;;;;;;-148.88;99.76;75602.53;5072633;28;19908;-76
2022/11/08 02:30:46;;;;;;;;;;;;;;;-148.88;99.72;75600.50;5073692;28;19935;-77
2022/11/08 02:33:15;;;;;;;;;;;;;;;-148.88;99.58;75594.44;5072390;28;19916;-77
2022/11/08 02:35:41;;;;;;;;;;;;;;;-148.88;99.16;75586.31;5072439;28;19912;-76
2022/11/08 02:38:06;;;;;;;;;;;;;;;-148.88;98.77;75582.22;5073644;28;19915;-76
2022/11/08 02:40:43;;;;;;;;;;;;;;;-148.88;98.87;75582.22;5073582;28;19908;-77
2022/11/08 02:43:08;;;;;;;;;;;;;;;-148.88;98.90;75578.19;5072114;28;19916;-76
2022/11/08 02:45:33;;;;;;;;;;;;;;;-148.88;98.82;75578.19;5073673;28;20397;-77
2022/11/08 02:47:59;;;;;;;;;;;;;;;-148.88;98.94;75580.22;5072326;28;19916;-77
2022/11/08 02:50:24;;;;;;;;;;;;;;;-148.88;98.95;75580.22;5073407;28;19916;-76
2022/11/08 02:52:49;;;;;;;;;;;;;;;-148.88;99.00;75576.13;5073765;28;19915;-77
2022/11/08 02:55:14;;;;;;;;;;;;;;;-148.88;99.21;75574.13;5072265;28;20381;-76
2022/11/08 02:57:39;;;;;;;;;;;;;;;-148.88;99.14;75574.13;5073414;28;19909;-76
2022/11/08 03:00:05;;;;;;;;;;;;;;;-148.88;98.93;75559.91;5073335;28;19908;-76
2022/11/08 03:02:30;;;;;;;;;;;;;;;-148.88;97.97;75541.63;5072010;28;19908;-76
2022/11/08 03:04:55;;;;;;;;;;;;;;;-148.88;97.90;75541.63;5071984;28;19916;-76
2022/11/08 03:07:20;;;;;;;;;;;;;;;-148.88;97.69;75537.56;5073454;28;19958;-76
2022/11/08 03:09:46;;;;;;;;;;;;;;;-148.88;97.41;75533.50;5073181;28;20014;-77
2022/11/08 03:12:11;;;;;;;;;;;;;;;-148.88;97.32;75525.38;5073132;28;19908;-76
2022/11/08 03:14:36;;;;;;;;;;;;;;;-148.88;97.39;75519.28;5071815;28;19908;-77
2022/11/08 03:17:03;;;;;;;;;;;;;;;-148.88;96.96;75515.22;5073185;28;19908;-77
2022/11/08 03:19:28;;;;;;;;;;;;;;;-148.88;96.76;75507.09;5072152;28;20287;-77
2022/11/08 03:21:53;;;;;;;;;;;;;;;-148.88;96.66;75505.06;5073039;28;19908;-76
2022/11/08 03:24:19;;;;;;;;;;;;;;;-148.88;96.59;75501.00;5073001;28;19913;-77
2022/11/08 03:26:44;;;;;;;;;;;;;;;-148.88;96.30;75494.91;5073021;28;19955;-76
2022/11/08 03:29:09;;;;;;;;;;;;;;;-148.88;96.11;75501.00;5072545;28;19998;-76
2022/11/08 03:31:34;;;;;;;;;;;;;;;-148.88;96.01;75501.00;5073211;28;20389;-76
2022/11/08 03:33:59;;;;;;;;;;;;;;;-148.88;95.98;75490.84;5071616;28;19908;-76
2022/11/08 03:36:25;;;;;;;;;;;;;;;-148.88;95.55;75490.84;5073076;28;19943;-76
2022/11/08 03:38:50;;;;;;;;;;;;;;;-148.88;95.16;75488.81;5073218;28;19999;-76
2022/11/08 03:41:15;;;;;;;;;;;;;;;-148.88;94.99;75478.66;5071558;28;19962;-76
2022/11/08 03:43:40;;;;;;;;;;;;;;;-148.88;94.60;75476.63;5072677;28;19912;-76
2022/11/08 03:46:06;;;;;;;;;;;;;;;-148.88;94.98;75480.69;5071661;28;19909;-77
2022/11/08 03:48:31;;;;;;;;;;;;;;;-148.88;94.99;75480.69;5072782;28;19908;-77
2022/11/08 03:50:56;;;;;;;;;;;;;;;-148.88;95.13;75478.66;5072759;28;20271;-77
2022/11/08 03:53:21;;;;;;;;;;;;;;;-148.88;95.33;75476.63;5071486;28;19908;-77
2022/11/08 03:55:47;;;;;;;;;;;;;;;-148.88;94.91;75472.56;5071419;28;19927;-76
2022/11/08 03:58:12;;;;;;;;;;;;;;;-148.88;94.47;75466.47;5054602;28;20297;-76
2022/11/08 04:00:38;;;;;;;;;;;;;;;-148.88;94.00;75460.38;5072664;28;20019;-77
2022/11/08 04:03:03;;;;;;;;;;;;;;;-148.88;93.89;75448.19;5072549;28;19976;-76
2022/11/08 04:05:31;;;;;;;;;;;;;;;-148.88;93.19;75450.22;5072665;28;20052;-77
2022/11/08 04:07:56;;;;;;;;;;;;;;;-148.88;92.90;75448.19;5071000;28;19943;-77
2022/11/08 04:10:21;;;;;;;;;;;;;;;-148.88;92.68;75444.13;5072548;28;19963;-80
2022/11/08 04:15:30;;;;;;;;;;;;;;;-148.88;92.41;75444.13;5072932;28;19915;-76
2022/11/08 04:23:30;;;;;;;;;;;;;;;-148.88;92.29;75427.88;5076628;28;19915;-77
2022/11/08 04:25:57;;;;;;;;;;;;;;;-148.88;92.34;75429.91;5074842;28;19997;-76
2022/11/08 04:28:24;;;;;;;;;;;;;;;-148.88;92.17;75431.94;5074931;28;19916;-77
2022/11/08 04:30:53;;;;;;;;;;;;;;;-148.88;92.17;75427.88;5075028;28;19913;-77
2022/11/08 04:33:18;;;;;;;;;;;;;;;-148.88;91.84;75433.97;5074993;28;19908;-76
2022/11/08 04:35:44;;;;;;;;;;;;;;;-148.88;91.82;75427.88;5074759;28;20003;-76
2022/11/08 04:38:09;;;;;;;;;;;;;;;-148.88;90.91;75425.84;5076049;28;19912;-76
2022/11/08 04:40:34;;;;;;;;;;;;;;;-148.88;91.21;75429.91;5075919;28;20289;-75
2022/11/08 04:42:59;;;;;;;;;;;;;;;-148.88;90.83;75436.00;5075680;28;19916;-75
2022/11/08 04:45:24;;;;;;;;;;;;;;;-148.88;90.04;75431.94;5076267;28;19909;-75
2022/11/08 04:47:49;;;;;;;;;;;;;;;-148.88;89.25;75431.94;5075881;28;19939;-75
2022/11/08 04:50:15;;;;;;;;;;;;;;;-148.88;88.75;75436.00;5074388;28;19916;-75
2022/11/08 04:52:40;;;;;;;;;;;;;;;-148.88;88.78;75436.00;5074239;28;19908;-76
2022/11/08 04:55:06;;;;;;;;;;;;;;;-148.88;88.60;75440.06;5075733;28;20036;-76
2022/11/08 04:57:31;;;;;;;;;;;;;;;-148.88;88.18;75444.13;5074316;28;19908;-76
2022/11/08 04:59:57;;;;;;;;;;;;;;;-148.88;87.84;75431.94;5075524;28;19908;-77
2022/11/08 05:02:22;;;;;;;;;;;;;;;-148.88;87.45;75436.00;5074152;28;19914;-75
2022/11/08 05:04:47;;;;;;;;;;;;;;;-148.88;87.65;75444.13;5074067;28;20092;-75
2022/11/08 05:07:12;;;;;;;;;;;;;;;-148.88;87.74;75438.03;5075369;28;19908;-76
2022/11/08 05:09:37;;;;;;;;;;;;;;;-148.88;87.54;75456.31;5075643;28;19909;-76
2022/11/08 05:12:03;;;;;;;;;;;;;;;-148.88;87.80;75460.38;5073958;28;20259;-74
2022/11/08 05:14:28;;;;;;;;;;;;;;;-148.88;87.91;75462.41;5074050;28;19909;-75
2022/11/08 05:16:53;;;;;;;;;;;;;;;-148.88;88.15;75476.63;5075249;28;20283;-76
2022/11/08 05:23:22;;;;;;;;;;;;;;;-148.88;88.51;75474.59;5073968;28;19975;-75
2022/11/08 05:24:47;;;;;;;;;;;;;;;-148.88;89.75;75480.69;5074999;28;19958;-75
2022/11/08 05:27:14;;;;;;;;;;;;;;;-148.88;90.14;75476.63;5073707;28;19909;-75
2022/11/08 05:29:39;;;;;;;;;;;;;;;-148.88;90.73;75476.63;5074117;28;19963;-75
2022/11/08 05:32:04;;;;;;;;;;;;;;;-148.88;90.81;75472.56;5075079;28;19958;-75
2022/11/08 05:34:30;;;;;;;;;;;;;;;-148.88;91.00;75466.47;5073548;28;19908;-75
2022/11/08 05:36:55;;;;;;;;;;;;;;;-148.88;91.31;75472.56;5073553;28;19958;-76
2022/11/08 05:39:20;;;;;;;;;;;;;;;-148.88;91.59;75472.56;5074810;28;19916;-75
2022/11/08 05:41:45;;;;;;;;;;;;;;;-148.88;91.80;75470.53;5073577;28;20010;-75
2022/11/08 05:44:10;;;;;;;;;;;;;;;-148.88;91.85;75472.56;5074487;28;19912;-75
2022/11/08 05:46:36;;;;;;;;;;;;;;;-148.88;92.08;75472.56;5074709;28;19908;-76
2022/11/08 05:49:01;;;;;;;;;;;;;;;-148.88;92.30;75462.41;5074874;28;19909;-76
2022/11/08 05:51:26;;;;;;;;;;;;;;;-148.88;91.97;75464.44;5073127;28;19927;-75
2022/11/08 05:53:51;;;;;;;;;;;;;;;-148.88;92.20;75458.34;5073154;28;19908;-76
2022/11/08 05:56:16;;;;;;;;;;;;;;;-148.88;91.92;75458.34;5073147;28;19962;-76
2022/11/08 05:58:43;;;;;;;;;;;;;;;-148.88;92.35;75464.44;5073416;28;20018;-76
2022/11/08 06:01:10;;;;;;;;;;;;;;;-148.88;92.51;75454.28;5074472;28;19992;-76
2022/11/08 06:03:35;;;;;;;;;;;;;;;-148.88;92.19;75458.34;5073213;28;19931;-76
2022/11/08 06:06:02;;;;;;;;;;;;;;;-148.88;91.86;75452.25;5074175;28;20311;-76
2022/11/08 06:08:27;;;;;;;;;;;;;;;-148.88;92.30;75448.19;5074263;28;19931;-76
2022/11/08 06:10:52;;;;;;;;;;;;;;;-148.88;92.09;75452.25;5073003;28;20358;-75
2022/11/08 06:13:17;;;;;;;;;;;;;;;-148.88;91.98;75452.25;5074207;28;20362;-76
2022/11/08 06:15:42;;;;;;;;;;;;;;;-148.88;91.77;75444.13;5074086;28;19931;-76
2022/11/08 06:18:08;;;;;;;;;;;;;;;-148.88;91.68;75448.19;5074009;28;19920;-76
2022/11/08 06:20:33;;;;;;;;;;;;;;;-148.88;91.75;75448.19;5073997;28;19952;-76
2022/11/08 06:22:58;;;;;;;;;;;;;;;-148.88;91.76;75444.13;5073829;28;20341;-76
2022/11/08 06:25:23;;;;;;;;;;;;;;;-148.88;91.63;75456.31;5073813;28;19916;-76
2022/11/08 06:27:48;;;;;;;;;;;;;;;-148.88;91.95;75462.41;5073826;28;19909;-76
2022/11/08 06:30:14;;;;;;;;;;;;;;;-148.88;92.23;75468.50;5072308;28;19923;-76
2022/11/08 06:32:39;;;;;;;;;;;;;;;-148.88;92.60;75478.66;5073648;28;20407;-75
2022/11/08 06:35:04;;;;;;;;;;;;;;;-148.88;92.52;75482.72;5072628;28;19912;-76
2022/11/08 06:37:30;;;;;;;;;;;;;;;-148.88;92.90;75488.81;5072567;28;20362;-75
2022/11/08 06:39:55;;;;;;;;;;;;;;;-148.88;92.95;75484.75;5073478;28;19958;-76
2022/11/08 06:42:20;;;;;;;;;;;;;;;-148.88;92.56;75460.38;5071658;28;20042;-75
2022/11/08 06:44:45;;;;;;;;;;;;;;;-148.88;92.56;75456.31;5072986;28;19943;-76
2022/11/08 06:47:11;;;;;;;;;;;;;;;-148.88;92.63;75474.59;5072638;28;19915;-76
2022/11/08 06:49:36;;;;;;;;;;;;;;;-148.88;92.76;75480.69;5072944;28;20347;-76
2022/11/08 06:52:02;;;;;;;;;;;;;;;-148.88;92.44;75484.75;5072490;28;20432;-75
2022/11/08 06:54:27;;;;;;;;;;;;;;;-148.88;92.68;75484.75;5072477;28;20236;-76
2022/11/08 06:56:54;;;;;;;;;;;;;;;-148.88;92.53;75482.72;5072522;28;19916;-76
2022/11/08 06:59:19;;;;;;;;;;;;;;;-148.88;92.14;75480.69;5072762;28;19987;-76
2022/11/08 07:01:45;;;;;;;;;;;;;;;-148.88;92.11;75468.50;5071129;28;19950;-76
2022/11/08 07:04:10;;;;;;;;;;;;;;;-148.88;91.75;75464.44;5071026;28;19961;-76
2022/11/08 07:06:35;;;;;;;;;;;;;;;-148.88;92.00;75468.50;5072672;28;19909;-76
2022/11/08 07:09:00;;;;;;;;;;;;;;;-148.88;92.32;75468.50;5072320;28;20279;-76
2022/11/08 07:11:26;;;;;;;;;;;;;;;-148.88;91.85;75456.31;5072185;28;19912;-76
2022/11/08 07:13:51;;;;;;;;;;;;;;;-148.88;91.80;75456.31;5072488;28;19908;-76
2022/11/08 07:16:16;;;;;;;;;;;;;;;-148.88;92.39;75452.25;5072503;28;19908;-76
2022/11/08 07:18:41;;;;;;;;;;;;;;;-148.88;92.24;75444.13;5072189;28;19988;-76
2022/11/08 07:21:06;;;;;;;;;;;;;;;-148.88;92.41;75446.16;5072174;28;20351;-76
2022/11/08 07:23:32;;;;;;;;;;;;;;;-148.88;92.82;75454.28;5072128;28;19958;-76
2022/11/08 07:26:04;;;;;;;;;;;;;;;-148.88;93.07;75460.38;5072105;28;20037;-76
2022/11/08 07:28:30;;;;;;;;;;;;;;;-148.88;93.20;75458.34;5070768;28;20381;-76
2022/11/08 07:31:00;;;;;;;;;;;;;;;-148.88;93.46;75460.38;5072030;28;19912;-76
2022/11/08 07:33:25;;;;;;;;;;;;;;;-148.88;93.07;75448.19;5071965;28;20346;-76
2022/11/08 07:35:50;;;;;;;;;;;;;;;-148.88;92.77;75438.03;5071992;28;19965;-76
2022/11/08 07:38:15;;;;;;;;;;;;;;;-148.88;92.83;75436.00;5071961;28;19931;-77
2022/11/08 07:40:43;;;;;;;;;;;;;;;-148.88;92.60;75427.88;5070746;28;19962;-76
2022/11/08 07:43:09;;;;;;;;;;;;;;;-148.88;92.46;75407.56;5034626;28;1058594;-76
2022/11/08 07:45:34;;;;;;;;;;;;;;;-148.88;91.80;75399.44;5072194;28;19908;-76
2022/11/08 07:48:00;;;;;;;;;;;;;;;-148.88;92.24;75397.41;5072830;28;19969;-76
2022/11/08 07:50:25;;;;;;;;;;;;;;;-148.88;92.11;75391.31;5072725;28;20306;-75
2022/11/08 07:52:51;;;;;;;;;;;;;;;-148.88;91.67;75383.19;5073405;28;19909;-76
2022/11/08 07:55:16;;;;;;;;;;;;;;;-148.88;91.16;75377.09;5076787;28;20299;-76
2022/11/08 07:57:41;;;;;;;;;;;;;;;-148.88;91.12;75371.00;5076617;28;19915;-76
2022/11/08 08:00:08;;;;;;;;;;;;;;;-148.88;90.92;75358.81;5076952;28;19969;-76
2022/11/08 08:02:33;;;;;;;;;;;;;;;-148.88;90.10;75348.66;5075185;28;19915;-76
2022/11/08 08:04:58;;;;;;;;;;;;;;;-148.88;90.14;75342.56;5076550;28;19909;-76
2022/11/08 08:07:23;;;;;;;;;;;;;;;-148.88;89.69;75336.47;5076463;28;19908;-76
2022/11/08 08:09:49;;;;;;;;;;;;;;;-148.88;89.77;75334.44;5075126;28;19958;-76
2022/11/08 08:12:14;;;;;;;;;;;;;;;-148.88;89.23;75318.19;5076272;28;20030;-76
2022/11/08 08:14:39;;;;;;;;;;;;;;;-148.88;89.03;75310.06;5074989;28;19908;-76
2022/11/08 08:17:04;;;;;;;;;;;;;;;-148.88;88.25;75301.94;5076193;28;19976;-76
2022/11/08 08:19:29;;;;;;;;;;;;;;;-148.88;88.04;75285.69;5076231;28;19912;-76
2022/11/08 08:21:55;;;;;;;;;;;;;;;-148.88;87.21;75277.59;5076209;28;19909;-76
2022/11/08 08:24:20;;;;;;;;;;;;;;;-148.88;86.68;75259.31;5074798;28;19920;-76
2022/11/08 08:26:45;;;;;;;;;;;;;;;-148.88;85.79;75236.97;5076094;28;19916;-76
2022/11/08 08:29:10;;;;;;;;;;;;;;;-148.88;85.91;75232.91;5076033;28;20363;-76
2022/11/08 08:31:35;;;;;;;;;;;;;;;-148.88;85.50;75226.81;5074684;28;19912;-76
2022/11/08 08:34:00;;;;;;;;;;;;;;;-148.88;84.36;75210.56;5075959;28;19908;-76
2022/11/08 08:36:26;;;;;;;;;;;;;;;-148.88;84.02;75202.44;5075908;28;19908;-76
2022/11/08 08:38:51;;;;;;;;;;;;;;;-148.88;83.21;75188.22;5074525;28;19908;-76
2022/11/08 08:41:16;;;;;;;;;;;;;;;-148.88;82.63;75171.97;5075784;28;19995;-76
2022/11/08 08:43:42;;;;;;;;;;;;;;;-148.88;82.54;75176.03;5074348;28;19912;-76
2022/11/08 08:46:07;;;;;;;;;;;;;;;-148.88;81.04;75135.41;5075832;28;19912;-76
2022/11/08 08:48:32;;;;;;;;;;;;;;;-148.88;80.72;75139.47;5074411;28;19914;-76
2022/11/08 08:50:58;;;;;;;;;;;;;;;-148.88;80.24;75131.34;5075600;28;19957;-76
2022/11/08 08:53:23;;;;;;;;;;;;;;;-148.88;78.50;75113.06;5074180;28;19908;-76
2022/11/08 08:55:51;;;;;;;;;;;;;;;-148.88;78.97;75113.06;5074302;28;19919;-76
2022/11/08 08:58:17;;;;;;;;;;;;;;;-148.88;78.62;75102.91;5074264;28;20384;-76
2022/11/08 09:00:42;;;;;;;;;;;;;;;-148.88;78.13;75106.97;5074238;28;19915;-76
2022/11/08 09:03:08;;;;;;;;;;;;;;;-148.88;77.85;75100.88;5074098;28;19938;-76
2022/11/08 09:05:33;;;;;;;;;;;;;;;-148.88;77.11;75090.72;5075395;28;20389;-76
2022/11/08 09:07:59;;;;;;;;;;;;;;;-148.88;74.89;75074.50;5075648;28;19908;-76
2022/11/08 09:10:24;;;;;;;;;;;;;;;-148.88;74.06;75048.09;5075316;28;19970;-76
2022/11/08 09:12:49;;;;;;;;;;;;;;;-148.88;74.72;75037.94;5075243;28;20383;-76
2022/11/08 09:15:15;;;;;;;;;;;;;;;-148.88;74.76;75029.81;5075196;28;20011;-76
2022/11/08 09:17:40;;;;;;;;;;;;;;;-148.88;73.36;75037.94;5075261;28;19912;-76
2022/11/08 09:20:06;;;;;;;;;;;;;;;-148.88;73.52;75023.72;5075138;28;19908;-76
2022/11/08 09:22:32;;;;;;;;;;;;;;;-148.88;73.42;74999.34;5075050;28;19995;-76
2022/11/08 09:24:57;;;;;;;;;;;;;;;-148.88;71.83;74966.84;5073775;28;20377;-76
2022/11/08 09:27:22;;;;;;;;;;;;;;;-148.88;70.21;74936.41;5075077;28;19915;-76
2022/11/08 09:29:47;;;;;;;;;;;;;;;-148.88;69.60;74907.97;5075262;28;19951;-76
2022/11/08 09:32:12;;;;;;;;;;;;;;;-148.88;69.85;74879.53;5073562;28;19917;-76
2022/11/08 09:34:38;;;;;;;;;;;;;;;-148.88;68.79;74861.25;5073627;28;20363;-76
2022/11/08 09:37:03;;;;;;;;;;;;;;;-148.88;67.11;74865.31;5074877;28;19966;-76
2022/11/08 09:39:28;;;;;;;;;;;;;;;-148.88;67.68;74855.16;5074841;28;19959;-76
2022/11/08 09:42:12;;;;;;;;;;;;;;;-148.88;65.95;74855.16;5074792;28;19916;-76
2022/11/08 09:44:51;;;;;;;;;;;;;;;-148.88;64.56;74851.09;5074738;28;19939;-76
2022/11/08 09:47:19;;;;;;;;;;;;;;;-148.88;65.43;74849.06;5074963;28;20349;-76
2022/11/08 09:49:48;;;;;;;;;;;;;;;-148.88;66.37;74840.94;5073202;28;20293;-76
2022/11/08 09:52:20;;;;;;;;;;;;;;;-148.88;64.00;74847.03;5072894;28;19927;-76
2022/11/08 09:54:46;;;;;;;;;;;;;;;-148.88;65.17;74855.16;5074757;28;19909;-76
2022/11/08 09:57:20;;;;;;;;;;;;;;;-148.88;65.36;74863.28;5073063;28;20009;-76
2022/11/08 09:59:47;;;;;;;;;;;;;;;-148.88;65.56;74853.13;5073034;28;19908;-76
2022/11/08 10:02:19;;;;;;;;;;;;;;;-148.88;62.39;74842.97;5074274;28;19982;-76
2022/11/08 10:04:52;;;;;;;;;;;;;;;-148.88;63.96;74834.84;5074433;28;20011;-76
2022/11/08 10:07:29;;;;;;;;;;;;;;;-148.88;64.31;74816.56;5072965;28;19966;-76
2022/11/08 10:10:14;;;;;;;;;;;;;;;-148.88;63.63;74814.53;5072834;28;20447;-76
2022/11/08 10:13:02;;;;;;;;;;;;;;;-148.88;62.65;74802.38;5062947;28;20438;-76
2022/11/08 10:15:27;;;;;;;;;;;;;;;-148.88;62.75;74790.19;5073900;28;19915;-76
2022/11/08 10:18:06;;;;;;;;;;;;;;;-148.88;62.50;74786.13;5073933;28;19908;-75
2022/11/08 10:20:43;;;;;;;;;;;;;;;-148.88;62.27;74775.97;5073950;28;19912;-76
2022/11/08 10:23:14;;;;;;;;;;;;;;;-148.88;61.12;74784.09;5073945;28;19989;-75
2022/11/08 10:25:43;;;;;;;;;;;;;;;-148.88;61.06;74773.94;5074158;28;19908;-76
2022/11/08 10:28:11;;;;;;;;;;;;;;;-148.88;61.04;74769.88;5072709;28;20325;-76
2022/11/08 10:30:39;;;;;;;;;;;;;;;-148.88;60.59;74763.78;5072397;28;19912;-76
2022/11/08 10:33:13;;;;;;;;;;;;;;;-148.88;60.66;74765.81;5072329;28;19908;-76
2022/11/08 10:35:59;;;;;;;;;;;;;;;-148.88;61.75;74749.56;5073703;28;19908;-76
2022/11/08 10:38:32;;;;;;;;;;;;;;;-148.88;59.60;74741.44;5073610;28;19931;-76
2022/11/08 10:41:03;;;;;;;;;;;;;;;-148.88;59.36;74729.25;5073601;28;20413;-76
2022/11/08 10:43:34;;;;;;;;;;;;;;;-148.88;59.25;74731.28;5073345;28;19920;-76
2022/11/08 10:45:59;;;;;;;;;;;;;;;-148.88;58.26;74727.22;5072185;28;19953;-76
2022/11/08 10:48:25;;;;;;;;;;;;;;;-148.88;59.22;74733.31;5073536;28;19915;-76
2022/11/08 10:50:51;;;;;;;;;;;;;;;-148.88;59.47;74727.22;5073341;28;19919;-76
2022/11/08 10:53:19;;;;;;;;;;;;;;;-148.88;58.14;74725.19;5072070;28;19991;-76
2022/11/08 10:55:49;;;;;;;;;;;;;;;-148.88;58.81;74721.13;5072121;28;19912;-76
2022/11/08 10:58:34;;;;;;;;;;;;;;;-148.88;57.96;74692.72;5073386;28;20405;-75
2022/11/08 11:01:01;;;;;;;;;;;;;;;-148.88;58.67;74692.72;5072213;28;19908;-76
2022/11/08 11:03:29;;;;;;;;;;;;;;;-148.88;57.68;74700.84;5071907;28;19916;-76
2022/11/08 11:05:57;;;;;;;;;;;;;;;-148.88;59.14;74713.00;5073212;28;19908;-76
2022/11/08 11:08:23;;;;;;;;;;;;;;;-148.88;58.74;74710.97;5071925;28;19909;-76
2022/11/08 11:10:49;;;;;;;;;;;;;;;-148.88;58.09;74713.00;5071869;28;19912;-76
2022/11/08 11:13:17;;;;;;;;;;;;;;;-148.88;58.77;74715.03;5071821;28;19915;-76
2022/11/08 11:15:51;;;;;;;;;;;;;;;-148.88;57.96;74713.00;5073345;28;19908;-76
2022/11/08 11:18:19;;;;;;;;;;;;;;;-148.88;59.10;74702.84;5071831;28;20006;-76
2022/11/08 11:21:05;;;;;;;;;;;;;;;-148.88;59.25;74696.78;5071722;28;19908;-76
2022/11/08 11:23:38;;;;;;;;;;;;;;;-148.88;59.45;74688.66;5071145;28;19909;-76
2022/11/08 11:26:05;;;;;;;;;;;;;;;-148.88;60.26;74676.47;5072825;28;19989;-76
2022/11/08 11:28:30;;;;;;;;;;;;;;;-148.88;58.19;74664.28;5072261;28;19915;-76
2022/11/08 11:31:00;;;;;;;;;;;;;;;-148.88;59.02;74678.50;5071645;28;19912;-75
2022/11/08 11:33:26;;;;;;;;;;;;;;;-148.88;60.37;74674.44;5072928;28;20366;-77
2022/11/08 11:36:06;;;;;;;;;;;;;;;-148.88;59.72;74658.19;5073113;28;19995;-75
2022/11/08 11:38:46;;;;;;;;;;;;;;;-148.88;59.69;74652.09;5071670;28;20020;-75
2022/11/08 11:41:13;;;;;;;;;;;;;;;-148.88;60.12;74648.03;5073142;28;19912;-75
2022/11/08 11:43:45;;;;;;;;;;;;;;;-148.88;60.75;74641.94;5069211;22;19927;-86
2022/11/08 11:49:12;;;;;;;;;;;;;;;-148.88;59.20;74646.00;5072678;28;19909;-85
2022/11/08 11:51:37;;;;;;;;;;;;;;;-148.88;58.39;74643.97;5071898;28;19912;-85
2022/11/08 11:54:04;;;;;;;;;;;;;;;-148.88;59.48;74635.84;5055065;28;19908;-83
2022/11/08 11:59:09;;;;;;;;;;;;;;;-148.88;58.60;74639.91;5072450;28;19966;-86
2022/11/08 12:01:56;;;;;;;;;;;;;;;-148.88;58.47;74633.81;5073593;28;19912;-85
2022/11/08 12:04:50;;;;;;;;;;;;;;;;;;;;;
2022/11/08 12:07:32;;;;;;;;;;;;;;;-148.88;58.82;74633.81;5073601;28;19908;-85
2022/11/08 12:10:10;;;;;;;;;;;;;;;-148.88;59.45;74641.94;5056289;28;20358;-85
2022/11/08 12:12:35;;;;;;;;;;;;;;;-148.88;58.44;74635.84;5055387;28;19995;-85
2022/11/08 12:15:40;;;;;;;;;;;;;;;;;;;;;
2022/11/08 12:18:27;;;;;;;;;;;;;;;-148.88;57.50;74646.00;5007079;28;19915;-84
2022/11/08 12:21:05;;;;;;;;;;;;;;;-148.88;58.35;74639.91;5054919;28;19943;-85
2022/11/08 12:23:51;;;;;;;;;;;;;;;-148.88;56.56;74631.78;5055199;28;19916;-85
2022/11/08 12:26:48;;;;;;;;;;;;;;;;;;;;;
2022/11/08 12:29:39;;;;;;;;;;;;;;;-148.88;56.91;74623.66;5073647;28;19908;-85
2022/11/08 12:32:22;;;;;;;;;;;;;;;-148.88;56.99;74625.69;5055896;28;19918;-86
2022/11/08 12:34:55;;;;;;;;;;;;;;;-148.88;56.63;74623.66;5055384;28;19912;-85
2022/11/08 12:37:55;;;;;;;;;;;;;;;;;;;;;
2022/11/08 12:40:39;;;;;;;;;;;;;;;-148.88;57.60;74615.53;5076295;28;19915;-85
2022/11/08 12:43:24;;;;;;;;;;;;;;;-148.88;55.34;74611.47;5076994;28;20373;-85
2022/11/08 12:45:49;;;;;;;;;;;;;;;-148.88;56.12;74619.59;5058183;28;19931;-86
2022/11/08 12:48:21;;;;;;;;;;;;;;;-148.88;54.78;74611.47;5059114;28;20370;-86
2022/11/08 12:51:02;;;;;;;;;;;;;;;-148.88;55.16;74607.41;5059503;28;19912;-85
2022/11/08 12:53:36;;;;;;;;;;;;;;;-148.88;56.52;74605.38;5049417;28;19931;-85
2022/11/08 12:56:03;;;;;;;;;;;;;;;-148.88;56.63;74603.34;5038782;28;20075;-85
2022/11/08 12:58:37;;;;;;;;;;;;;;;-148.88;55.07;74591.19;5037934;28;20007;-86
2022/11/08 13:01:05;;;;;;;;;;;;;;;-148.88;53.95;74589.16;5038624;28;19915;-93